| time (UTC) | temp C | wind direction | speed KPH | gust KPH | rain 1hr cm | rain 24hr cm | rain mn cm | humidity % | barometer mb |
| 20260906212330 | 29 | 120 | 8.0 | 12.9 | 0.00 | 0.18 | 0.18 | 58 | 1015.7 |
| 20260906211328 | 29 | 109 | 12.9 | 20.9 | 0.00 | 0.18 | 0.18 | 57 | 1015.9 |
| 20260906210329 | 29 | 108 | 11.3 | 25.7 | 0.00 | 0.18 | 0.18 | 57 | 1016.1 |
| 20260906205329 | 28 | 115 | 12.9 | 22.5 | 0.00 | 0.18 | 0.18 | 56 | 1016.2 |
| 20260906202430 | 31 | 111 | 11.3 | 22.5 | 0.00 | 0.18 | 0.18 | 46 | 1016.4 |
| 20260906201429 | 30 | 121 | 6.4 | 9.7 | 0.00 | 0.18 | 0.18 | 47 | 1016.4 |
| 20260906200428 | 30 | 115 | 3.2 | 12.9 | 0.00 | 0.18 | 0.18 | 45 | 1016.1 |
| 20260906195429 | 30 | 94 | 11.3 | 16.1 | 0.00 | 0.18 | 0.18 | 43 | 1016.1 |
| 20260906194430 | 31 | 124 | 9.7 | 19.3 | 0.00 | 0.18 | 0.18 | 42 | 1016.2 |
| 20260906193428 | 30 | 95 | 6.4 | 9.7 | 0.00 | 0.18 | 0.18 | 41 | 1016.2 |
| 20260906192430 | 30 | 114 | 11.3 | 16.1 | 0.00 | 0.18 | 0.18 | 41 | 1016.1 |
| 20260906191447 | 31 | 124 | 8.0 | 9.7 | 0.00 | 0.18 | 0.18 | 41 | 1016.1 |
| 20260906190528 | 31 | 76 | 11.3 | 19.3 | 0.00 | 0.18 | 0.18 | 41 | 1015.8 |
| 20260906185528 | 30 | 101 | 0.0 | 1.6 | 0.00 | 0.18 | 0.18 | 40 | 1016.1 |
| 20260906184527 | 29 | 112 | 14.5 | 22.5 | 0.00 | 0.18 | 0.18 | 40 | 1016.1 |
| 20260906183530 | 29 | 112 | 8.0 | 8.0 | 0.00 | 0.18 | 0.18 | 43 | 1016.2 |
| 20260906181530 | 28 | 112 | 3.2 | 6.4 | 0.00 | 0.18 | 0.18 | 45 | 1016.6 |
| 20260906180530 | 27 | 89 | 3.2 | 6.4 | 0.00 | 0.18 | 0.18 | 50 | 1016.7 |
| 20260906175530 | 26 | 112 | 1.6 | 1.6 | 0.00 | 0.18 | 0.18 | 54 | 1016.7 |
| 20260906174619 | 25 | 112 | 0.0 | 0.0 | 0.00 | 0.18 | 0.18 | 59 | 1016.9 |
| 20260906173719 | 25 | 69 | 1.6 | 6.4 | 0.00 | 0.18 | 0.18 | 60 | 1016.8 |
| 20260906172720 | 24 | 112 | 0.0 | 0.0 | 0.00 | 0.18 | 0.18 | 62 | 1017.0 |
| 20260906170818 | 23 | 112 | 0.0 | 0.0 | 0.00 | 0.18 | 0.18 | 67 | 1017.2 |
| 20260906165834 | 23 | 112 | 0.0 | 0.0 | 0.00 | 0.18 | 0.18 | 68 | 1017.2 |
| 20260906164818 | 22 | 82 | 1.6 | 4.8 | 0.00 | 0.18 | 0.18 | 73 | 1016.8 |
| 20260906163820 | 20 | 97 | 9.7 | 14.5 | 0.00 | 0.18 | 0.18 | 78 | 1017.1 |
| 20260906162818 | 19 | 95 | 14.5 | 24.1 | 0.03 | 0.18 | 0.18 | 81 | 1016.7 |
| 20260906161818 | 20 | 96 | 14.5 | 27.4 | 0.10 | 0.18 | 0.18 | 76 | 1016.7 |
| 20260906160819 | 21 | 78 | 11.3 | 17.7 | 0.10 | 0.18 | 0.18 | 71 | 1016.3 |
| 20260906155818 | 20 | 96 | 17.7 | 22.5 | 0.10 | 0.18 | 0.18 | 77 | 1016.7 |
| 20260906153820 | 19 | 90 | 12.9 | 17.7 | 0.13 | 0.18 | 0.18 | 90 | 1017.4 |
| 20260906152818 | 19 | 90 | 9.7 | 11.3 | 0.13 | 0.15 | 0.15 | 92 | 1018.4 |
| 20260906151818 | 19 | 247 | 9.7 | 14.5 | 0.05 | 0.08 | 0.08 | 89 | 1020.2 |
| 20260906150818 | 19 | 90 | 4.8 | 4.8 | 0.05 | 0.08 | 0.08 | 88 | 1018.3 |
| 20260906145818 | 20 | 79 | 9.7 | 16.1 | 0.05 | 0.08 | 0.08 | 86 | 1018.0 |
| 20260906144818 | 20 | 97 | 12.9 | 17.7 | 0.05 | 0.08 | 0.08 | 88 | 1019.0 |
| 20260906143918 | 18 | 97 | 0.0 | 1.6 | 0.03 | 0.05 | 0.05 | 92 | 1020.0 |
| 20260906142917 | 18 | 292 | 3.2 | 3.2 | 0.03 | 0.03 | 0.03 | 92 | 1019.5 |
| 20260906141918 | 18 | 247 | 4.8 | 4.8 | 0.03 | 0.03 | 0.03 | 92 | 1019.2 |
| 20260906135019 | 18 | 320 | 3.2 | 9.7 | 0.03 | 0.03 | 0.03 | 96 | 1018.2 |
| 20260906134019 | 18 | 18 | 1.6 | 6.4 | 0.03 | 0.03 | 0.03 | 95 | 1018.0 |
| 20260906133017 | 18 | 22 | 4.8 | 11.3 | 0.03 | 0.03 | 0.00 | 94 | 1018.7 |
| 20260906132116 | 18 | 247 | 4.8 | 4.8 | 0.00 | 0.00 | 0.00 | 94 | 1020.0 |
| 20260906131117 | 18 | 180 | 3.2 | 3.2 | 0.00 | 0.00 | 0.00 | 96 | 1019.9 |
| 20260906130216 | 18 | 247 | 0.0 | 0.0 | 0.00 | 0.00 | 0.00 | 96 | 1019.0 |
| 20260906125235 | -17 | 0 | 0.0 | 0.0 | 0.00 | 0.00 | 0.00 | 100 | |
| 20260906124315 | 17 | 247 | 3.2 | 3.2 | 0.00 | 0.00 | 0.00 | 96 | 1019.4 |
| 20260906123315 | 17 | 247 | 8.0 | 8.0 | 0.00 | 0.00 | 0.00 | 95 | 1019.4 |
| 20260906122317 | -17 | 0 | 0.0 | 0.0 | 0.00 | 0.00 | 0.00 | 100 | |
| 20260906121333 | -17 | 0 | 0.0 | 0.0 | 0.00 | 0.00 | 0.00 | 100 | |
| 20260906120417 | -17 | 0 | 0.0 | 0.0 | 0.00 | 0.00 | 0.00 | 100 | |
| 20260906115416 | -17 | 0 | 0.0 | 0.0 | 0.00 | 0.00 | 0.00 | 100 | |
| 20260906114432 | -17 | 0 | 0.0 | 0.0 | 0.00 | 0.00 | 0.00 | 100 | |
| 20260906113531 | -17 | 0 | 0.0 | 0.0 | 0.00 | 0.00 | 0.00 | 100 | |
| 20260906112630 | -17 | 0 | 0.0 | 0.0 | 0.00 | 0.00 | 0.00 | 100 | |
| 20260906111717 | -17 | 0 | 0.0 | 0.0 | 0.00 | 0.00 | 0.00 | 100 | |
| 20260906110816 | -17 | 0 | 0.0 | 0.0 | 0.00 | 0.00 | 0.00 | 100 | |
| 20260906105818 | -17 | 0 | 0.0 | 0.0 | 0.00 | 0.00 | 0.00 | 100 | |
| 20260906104015 | -17 | 0 | 0.0 | 0.0 | 0.00 | 0.00 | 0.00 | 100 | |
| 20260906103033 | -17 | 0 | 0.0 | 0.0 | 0.00 | 0.00 | 0.00 | 100 | |
| 20260906102118 | 18 | 112 | 0.0 | 0.0 | 0.00 | 0.00 | 0.00 | 94 | 1018.0 |
| 20260906101118 | 18 | 90 | 0.0 | 0.0 | 0.00 | 0.00 | 0.00 | 94 | 1017.9 |
| 20260906100217 | 18 | 90 | 3.2 | 3.2 | 0.00 | 0.00 | 0.00 | 94 | 1018.0 |
| 20260906095217 | 18 | 112 | 0.0 | 0.0 | 0.00 | 0.00 | 0.00 | 94 | 1017.9 |
| 20260906094218 | 18 | 90 | 0.0 | 0.0 | 0.00 | 0.00 | 0.00 | 94 | 1018.0 |
| 20260906093216 | 18 | 90 | 0.0 | 0.0 | 0.00 | 0.00 | 0.00 | 94 | 1017.9 |
| 20260906092217 | 18 | 112 | 0.0 | 0.0 | 0.00 | 0.00 | 0.00 | 95 | 1017.9 |
| 20260906091217 | 18 | 90 | 1.6 | 9.7 | 0.00 | 0.00 | 0.00 | 95 | 1017.9 |
| 20260906090220 | 18 | 95 | 4.8 | 8.0 | 0.00 | 0.00 | 0.00 | 95 | 1017.9 |
| 20260906085317 | 18 | 95 | 6.4 | 11.3 | 0.00 | 0.00 | 0.00 | 95 | 1017.8 |
| 20260906084319 | 18 | 93 | 4.8 | 12.9 | 0.00 | 0.00 | 0.00 | 94 | 1017.9 |
| 20260906083416 | 18 | 95 | 4.8 | 12.9 | 0.00 | 0.00 | 0.00 | 93 | 1018.1 |
| 20260906082419 | 18 | 92 | 3.2 | 8.0 | 0.00 | 0.00 | 0.00 | 94 | 1017.9 |
| 20260906081418 | 18 | 103 | 4.8 | 6.4 | 0.00 | 0.00 | 0.00 | 93 | 1017.9 |
| 20260906080418 | 18 | 95 | 9.7 | 14.5 | 0.00 | 0.00 | 0.00 | 92 | 1017.9 |
| 20260906075516 | 18 | 94 | 6.4 | 12.9 | 0.00 | 0.00 | 0.00 | 91 | 1017.9 |
| 20260906073517 | 19 | 100 | 4.8 | 9.7 | 0.00 | 0.00 | 0.00 | 92 | 1018.0 |
| 20260906072519 | 19 | 105 | 4.8 | 9.7 | 0.00 | 0.00 | 0.00 | 91 | 1017.9 |
| 20260906071616 | 19 | 90 | 4.8 | 9.7 | 0.00 | 0.00 | 0.00 | 90 | 1017.8 |
| 20260906070618 | 20 | 90 | 6.4 | 11.3 | 0.00 | 0.00 | 0.00 | 90 | 1017.6 |
| 20260906065616 | 20 | 92 | 4.8 | 9.7 | 0.00 | 0.00 | 0.00 | 90 | 1017.8 |
| 20260906064620 | 20 | 90 | 3.2 | 9.7 | 0.00 | 0.00 | 0.00 | 90 | 1017.9 |
| 20260906063716 | 20 | 90 | 0.0 | 4.8 | 0.00 | 0.00 | 0.00 | 89 | 1017.9 |
| 20260906061817 | 20 | 84 | 0.0 | 1.6 | 0.00 | 0.00 | 0.00 | 88 | 1017.8 |
| 20260906060821 | 20 | 95 | 3.2 | 4.8 | 0.00 | 0.00 | 0.00 | 89 | 1017.9 |
| 20260906055819 | 20 | 90 | 0.0 | 0.0 | 0.00 | 0.00 | 0.00 | 89 | 1018.0 |
| 20260906054820 | 20 | 90 | 1.6 | 6.4 | 0.00 | 0.00 | 0.00 | 89 | 1017.9 |
| 20260906053818 | 20 | 90 | 0.0 | 3.2 | 0.00 | 0.00 | 0.00 | 89 | 1017.9 |
| 20260906052822 | 21 | 93 | 1.6 | 11.3 | 0.00 | 0.00 | 0.00 | 89 | 1017.8 |
| 20260906051919 | 21 | 90 | 1.6 | 3.2 | 0.00 | 0.00 | 0.00 | 88 | 1017.9 |
| 20260906050920 | 21 | 71 | 0.0 | 3.2 | 0.00 | 0.00 | 0.00 | 87 | 1017.9 |
| 20260906045919 | 21 | 90 | 4.8 | 8.0 | 0.00 | 0.00 | 0.00 | 87 | 1017.8 |
| 20260906044919 | 21 | 81 | 4.8 | 8.0 | 0.00 | 0.00 | 0.00 | 87 | 1017.8 |
| 20260906043920 | 21 | 72 | 1.6 | 3.2 | 0.00 | 0.00 | 0.00 | 86 | 1017.8 |
| 20260906043018 | 21 | 67 | 0.0 | 0.0 | 0.00 | 0.00 | 0.00 | 86 | 1017.5 |
| 20260906042117 | 22 | 88 | 1.6 | 4.8 | 0.00 | 0.00 | 0.00 | 85 | 1017.6 |
| 20260906041118 | 22 | 78 | 0.0 | 4.8 | 0.00 | 0.00 | 0.00 | 84 | 1017.6 |
| 20260906040119 | 22 | 81 | 0.0 | 1.6 | 0.00 | 0.00 | 0.00 | 84 | 1017.7 |
| 20260906035120 | 22 | 67 | 0.0 | 0.0 | 0.00 | 0.00 | 0.00 | 82 | 1017.4 |
| 20260906034120 | 22 | 112 | 0.0 | 0.0 | 0.00 | 0.00 | 0.00 | 81 | 1017.6 |
| 20260906033219 | 23 | 357 | 0.0 | 1.6 | 0.00 | 0.00 | 0.00 | 80 | 1017.2 |
| 20260906032317 | 23 | 67 | 0.0 | 0.0 | 0.00 | 0.00 | 0.00 | 78 | 1017.1 |
| 20260906030320 | 24 | 4 | 1.6 | 6.4 | 0.00 | 0.00 | 0.00 | 75 | 1017.0 |
| 20260906025417 | 25 | 81 | 0.0 | 4.8 | 0.00 | 0.00 | 0.00 | 74 | 1016.8 |
| 20260906024419 | 25 | 99 | 1.6 | 6.4 | 0.00 | 0.00 | 0.00 | 71 | 1016.8 |
| 20260906023418 | 25 | 82 | 0.0 | 4.8 | 0.00 | 0.00 | 0.00 | 71 | 1016.7 |
| 20260906022518 | 25 | 68 | 3.2 | 12.9 | 0.00 | 0.00 | 0.00 | 70 | 1016.6 |
| 20260906021519 | 26 | 86 | 0.0 | 3.2 | 0.00 | 0.00 | 0.00 | 68 | 1016.6 |
| 20260906020534 | 26 | 87 | 1.6 | 6.4 | 0.00 | 0.00 | 0.00 | 67 | 1016.3 |
| 20260906013718 | 27 | 82 | 0.0 | 1.6 | 0.00 | 0.00 | 0.00 | 61 | 1016.2 |
| 20260906012718 | 28 | 85 | 0.0 | 0.0 | 0.00 | 0.00 | 0.00 | 57 | 1016.2 |
| 20260906011818 | 30 | 85 | 0.0 | 0.0 | 0.00 | 0.00 | 0.00 | 51 | 1016.2 |
| 20260906010818 | 31 | 101 | 0.0 | 0.0 | 0.00 | 0.00 | 0.00 | 42 | 1016.1 |
| 20260906005836 | -17 | 0 | 0.0 | 0.0 | 0.00 | 0.00 | 0.00 | 100 | |
| 20260906003822 | -17 | 0 | 0.0 | 0.0 | 0.00 | 0.00 | 0.00 | 100 | |
| 20260906001839 | -17 | 0 | 0.0 | 0.0 | 0.00 | 0.00 | 0.00 | 100 | |
| 20260906000820 | -17 | 0 | 0.0 | 0.0 | 0.00 | 0.00 | 0.00 | 100 | |
| 20260905235837 | -17 | 0 | 0.0 | 0.0 | 0.00 | 0.00 | 0.00 | 100 | |
| 20260905234820 | 35 | 247 | 1.6 | 1.6 | 0.00 | 0.00 | 0.00 | 33 | 1015.4 |
| 20260905233821 | -17 | 0 | 0.0 | 0.0 | 0.00 | 0.00 | 0.00 | 100 | |
| 20260905232919 | -17 | 0 | 0.0 | 0.0 | 0.00 | 0.00 | 0.00 | 100 | |
| 20260905231936 | -17 | 0 | 0.0 | 0.0 | 0.00 | 0.00 | 0.00 | 100 | |
| 20260905230936 | -17 | 0 | 0.0 | 0.0 | 0.00 | 0.00 | 0.00 | 100 | |
| 20260905225938 | -17 | 0 | 0.0 | 0.0 | 0.00 | 0.00 | 0.00 | 100 | |
| 20260905224939 | -17 | 0 | 0.0 | 0.0 | 0.00 | 0.00 | 0.00 | 100 | |
| 20260905223921 | 33 | 101 | 0.0 | 0.0 | 0.00 | 0.00 | 0.00 | 36 | 1015.2 |
| 20260905222018 | 33 | 235 | 0.0 | 0.0 | 0.00 | 0.00 | 0.00 | 40 | 1015.2 |
| 20260905221038 | 33 | 112 | 0.0 | 0.0 | 0.00 | 0.00 | 0.00 | 39 | 1015.2 |
| 20260905220120 | 33 | 90 | 0.0 | 0.0 | 0.00 | 0.00 | 0.00 | 39 | 1015.4 |
| 20260905215136 | 33 | 247 | 0.0 | 0.0 | 0.00 | 0.00 | 0.00 | 39 | 1015.5 |
| 20260905213219 | 33 | 247 | 3.2 | 3.2 | 0.00 | 0.00 | 0.00 | 39 | 1015.4 |